Time;durP1;ratioP1;P1;durP2;ratioP2;P2;SDS_P1;SDS_P2;PMS_P1;PMS_P2;Temp;Humidity;BMP_temperature;BMP_pressure;BME280_temperature;BME280_humidity;BME280_pressure;Samples;Min_cycle;Max_cycle;Signal;HPM_P1;HPM_P2
2023/05/05 00:01:23;;;;;;;10.27;6.15;;;;;;;;;;5014071;28;20480;-62
2023/05/05 00:03:48;;;;;;;7.70;5.78;;;;;;;;;;5014034;28;20034;-62
2023/05/05 00:06:13;;;;;;;6.78;4.88;;;;;;;;;;5014295;28;20029;-62
2023/05/05 00:08:39;;;;;;;8.25;5.78;;;;;;;;;;5013782;28;20026;-62
2023/05/05 00:11:04;;;;;;;7.70;5.68;;;;;;;;;;5014254;28;20515;-62
2023/05/05 00:13:30;;;;;;;7.68;5.47;;;;;;;;;;5014091;28;20065;-55
2023/05/05 00:15:55;;;;;;;9.05;5.72;;;;;;;;;;5013763;28;20109;-55
2023/05/05 00:18:20;;;;;;;7.78;5.45;;;;;;;;;;5013868;28;20401;-55
2023/05/05 00:20:46;;;;;;;6.05;4.90;;;;;;;;;;5013788;28;20038;-55
2023/05/05 00:23:11;;;;;;;8.32;5.20;;;;;;;;;;5013647;28;20034;-55
2023/05/05 00:25:37;;;;;;;7.20;5.38;;;;;;;;;;5014237;28;20113;-55
2023/05/05 00:28:02;;;;;;;6.57;5.28;;;;;;;;;;5013832;28;20495;-55
2023/05/05 00:30:28;;;;;;;6.30;5.20;;;;;;;;;;5014300;28;20067;-62
2023/05/05 00:32:53;;;;;;;7.88;5.50;;;;;;;;;;4998407;28;20041;-63
2023/05/05 00:35:19;;;;;;;6.20;5.32;;;;;;;;;;5000303;28;20092;-62
2023/05/05 00:37:45;;;;;;;8.15;5.80;;;;;;;;;;5017671;28;20026;-62
2023/05/05 00:40:11;;;;;;;6.72;5.47;;;;;;;;;;5018146;28;20057;-62
2023/05/05 00:42:38;;;;;;;6.38;5.00;;;;;;;;;;5000262;28;20036;-62
2023/05/05 00:45:03;;;;;;;8.05;5.35;;;;;;;;;;5017884;28;20041;-62
2023/05/05 00:47:29;;;;;;;7.43;5.10;;;;;;;;;;5017657;28;20030;-62
2023/05/05 00:49:54;;;;;;;6.47;5.45;;;;;;;;;;5017266;28;20476;-55
2023/05/05 00:52:20;;;;;;;7.82;6.22;;;;;;;;;;5017233;28;20468;-55
2023/05/05 00:54:45;;;;;;;8.30;5.30;;;;;;;;;;4999637;28;20034;-55
2023/05/05 00:57:11;;;;;;;7.82;5.45;;;;;;;;;;4999881;28;20022;-55
2023/05/05 00:59:37;;;;;;;5.75;4.75;;;;;;;;;;4999871;28;20029;-55
2023/05/05 01:02:02;;;;;;;6.50;4.93;;;;;;;;;;5000001;28;20112;-55
2023/05/05 01:04:28;;;;;;;6.97;4.97;;;;;;;;;;5017696;28;20456;-55
2023/05/05 01:07:12;;;;;;;6.07;4.68;;;;;;;;;;5017734;28;20506;-55
2023/05/05 01:09:42;;;;;;;5.72;4.30;;;;;;;;;;5017237;28;20030;-55
2023/05/05 01:12:15;;;;;;;5.50;5.00;;;;;;;;;;5016929;28;20033;-55
2023/05/05 01:14:46;;;;;;;5.82;4.78;;;;;;;;;;5017132;28;20376;-55
2023/05/05 01:17:16;;;;;;;4.88;4.35;;;;;;;;;;5017126;28;20033;-55
2023/05/05 01:19:47;;;;;;;5.28;4.65;;;;;;;;;;5017242;28;20034;-55
2023/05/05 01:22:13;;;;;;;5.05;4.55;;;;;;;;;;5017127;28;20076;-55
2023/05/05 01:24:45;;;;;;;7.00;4.80;;;;;;;;;;5017335;28;20038;-55
2023/05/05 01:27:18;;;;;;;6.28;4.60;;;;;;;;;;4999189;28;20033;-55
2023/05/05 01:30:07;;;;;;;8.15;4.90;;;;;;;;;;4999342;28;20527;-55
2023/05/05 01:32:34;;;;;;;7.28;4.72;;;;;;;;;;5017165;28;20037;-55
2023/05/05 01:35:19;;;;;;;6.22;4.60;;;;;;;;;;4999636;28;20034;-55
2023/05/05 01:37:57;;;;;;;5.15;4.63;;;;;;;;;;4998817;28;20018;-55
2023/05/05 01:40:25;;;;;;;5.50;4.43;;;;;;;;;;4999287;28;20052;-55
2023/05/05 01:42:53;;;;;;;5.63;4.35;;;;;;;;;;5016352;28;20376;-55
2023/05/05 01:45:20;;;;;;;4.80;4.28;;;;;;;;;;5016144;28;20116;-55
2023/05/05 01:47:45;;;;;;;4.70;4.22;;;;;;;;;;5016812;28;20026;-55
2023/05/05 01:50:11;;;;;;;5.25;4.70;;;;;;;;;;5016022;28;20030;-55
2023/05/05 01:52:37;;;;;;;7.78;4.63;;;;;;;;;;5016140;28;20444;-54
2023/05/05 01:55:03;;;;;;;4.68;4.22;;;;;;;;;;5016210;28;20021;-54
2023/05/05 01:57:30;;;;;;;4.72;4.15;;;;;;;;;;4998754;28;20492;-54
2023/05/05 01:59:57;;;;;;;6.25;5.07;;;;;;;;;;4998618;28;20022;-54
2023/05/05 02:02:24;;;;;;;6.43;4.63;;;;;;;;;;5016588;28;20342;-55
2023/05/05 02:04:51;;;;;;;7.05;4.18;;;;;;;;;;5016247;28;20026;-55
2023/05/05 02:07:18;;;;;;;6.45;4.88;;;;;;;;;;5016214;28;20021;-55
2023/05/05 02:09:44;;;;;;;5.30;4.80;;;;;;;;;;5016321;28;20380;-55
2023/05/05 02:12:10;;;;;;;5.53;4.82;;;;;;;;;;5015960;28;20025;-55
2023/05/05 02:14:36;;;;;;;5.95;4.63;;;;;;;;;;4998808;28;20037;-62
2023/05/05 02:17:02;;;;;;;5.80;4.90;;;;;;;;;;4998245;28;20029;-62
2023/05/05 02:19:29;;;;;;;6.07;4.45;;;;;;;;;;5016182;28;20164;-62
2023/05/05 02:21:55;;;;;;;6.72;4.72;;;;;;;;;;4982241;28;20124;-62
2023/05/05 02:24:22;;;;;;;5.50;4.60;;;;;;;;;;4998452;28;20061;-62
2023/05/05 02:26:48;;;;;;;6.35;4.72;;;;;;;;;;4998101;28;20065;-62
2023/05/05 02:29:27;;;;;;;5.25;4.70;;;;;;;;;;4997935;28;20404;-55
2023/05/05 02:31:54;;;;;;;5.95;4.95;;;;;;;;;;5015425;28;20061;-55
2023/05/05 02:34:25;;;;;;;6.13;4.80;;;;;;;;;;4998137;28;20111;-55
2023/05/05 02:36:52;;;;;;;5.88;4.72;;;;;;;;;;4998504;28;20479;-55
2023/05/05 02:39:23;;;;;;;5.10;4.32;;;;;;;;;;4998272;28;20539;-55
2023/05/05 02:41:50;;;;;;;4.55;4.15;;;;;;;;;;4998172;28;20124;-55
2023/05/05 02:44:23;;;;;;;5.03;4.53;;;;;;;;;;4998152;28;20025;-55
2023/05/05 02:46:49;;;;;;;5.07;4.57;;;;;;;;;;4998120;28;20129;-62
2023/05/05 02:49:15;;;;;;;5.47;4.43;;;;;;;;;;5015576;28;20033;-56
2023/05/05 02:51:41;;;;;;;6.90;4.55;;;;;;;;;;5010752;28;20049;-55
2023/05/05 02:54:15;;;;;;;7.22;4.25;;;;;;;;;;5017234;28;20112;-55
2023/05/05 02:56:47;;;;;;;6.10;4.53;;;;;;;;;;5035070;28;20109;-56
2023/05/05 02:59:14;;;;;;;5.72;4.65;;;;;;;;;;5017125;28;20091;-55
2023/05/05 03:01:58;;;;;;;4.38;4.05;;;;;;;;;;5017260;28;20052;-55
2023/05/05 03:04:45;;;;;;;5.07;4.28;;;;;;;;;;5017240;28;20030;-55
2023/05/05 03:07:14;;;;;;;5.40;4.35;;;;;;;;;;5017054;28;20036;-55
2023/05/05 03:09:49;;;;;;;7.03;4.18;;;;;;;;;;5017063;28;20036;-55
2023/05/05 03:12:16;;;;;;;5.22;4.38;;;;;;;;;;5034823;28;20037;-55
2023/05/05 03:14:52;;;;;;;4.90;4.50;;;;;;;;;;5016984;28;20026;-55
2023/05/05 03:17:19;;;;;;;5.13;4.35;;;;;;;;;;5016884;28;20032;-55
2023/05/05 03:19:45;;;;;;;6.85;4.65;;;;;;;;;;5016853;28;20485;-55
2023/05/05 03:22:11;;;;;;;5.50;4.45;;;;;;;;;;5016827;28;20021;-55
2023/05/05 03:24:41;;;;;;;5.05;4.50;;;;;;;;;;5016958;28;20053;-55
2023/05/05 03:27:08;;;;;;;5.38;4.70;;;;;;;;;;5034607;28;20036;-55
2023/05/05 03:29:36;;;;;;;6.13;4.15;;;;;;;;;;5016643;28;20037;-54
2023/05/05 03:32:04;;;;;;;5.13;4.38;;;;;;;;;;5016804;28;20030;-54
2023/05/05 03:34:30;;;;;;;6.22;4.20;;;;;;;;;;5016675;28;20034;-55
2023/05/05 03:36:57;;;;;;;5.78;4.22;;;;;;;;;;5016944;28;20050;-54
2023/05/05 03:39:23;;;;;;;5.03;3.95;;;;;;;;;;5016252;28;20064;-55
2023/05/05 03:41:49;;;;;;;5.90;4.05;;;;;;;;;;5016329;28;20033;-55
2023/05/05 03:44:17;;;;;;;6.75;4.32;;;;;;;;;;5016940;28;20029;-56
2023/05/05 03:46:42;;;;;;;5.25;4.28;;;;;;;;;;5016688;28;20021;-55
2023/05/05 03:49:10;;;;;;;7.50;4.10;;;;;;;;;;5016809;28;20033;-55
2023/05/05 03:51:38;;;;;;;4.55;4.15;;;;;;;;;;5015954;28;20392;-55
2023/05/05 03:54:03;;;;;;;4.35;3.95;;;;;;;;;;5016879;28;20095;-55
2023/05/05 03:56:28;;;;;;;5.03;4.05;;;;;;;;;;5016074;28;20029;-55
2023/05/05 03:58:54;;;;;;;5.05;4.35;;;;;;;;;;5034006;28;20452;-55
2023/05/05 04:01:19;;;;;;;5.47;4.32;;;;;;;;;;5034145;28;20021;-55
2023/05/05 04:03:45;;;;;;;6.88;3.88;;;;;;;;;;5016415;28;20061;-55
2023/05/05 04:06:10;;;;;;;4.53;4.10;;;;;;;;;;5015933;28;20029;-55
2023/05/05 04:08:35;;;;;;;5.35;4.50;;;;;;;;;;4999986;28;20111;-55
2023/05/05 04:11:01;;;;;;;6.32;4.72;;;;;;;;;;5033960;28;20040;-55
2023/05/05 04:13:28;;;;;;;4.88;4.38;;;;;;;;;;5016321;28;20017;-55
2023/05/05 04:15:53;;;;;;;7.10;4.57;;;;;;;;;;5016271;28;20018;-61
2023/05/05 04:18:19;;;;;;;5.05;4.55;;;;;;;;;;5015808;28;20035;-61
2023/05/05 04:20:45;;;;;;;4.75;4.25;;;;;;;;;;5016029;28;20026;-62
2023/05/05 04:23:11;;;;;;;5.38;4.65;;;;;;;;;;5016007;28;20118;-61
2023/05/05 04:25:36;;;;;;;5.35;4.68;;;;;;;;;;5015952;28;20456;-61
2023/05/05 04:28:02;;;;;;;6.78;4.90;;;;;;;;;;5016261;28;20029;-61
2023/05/05 04:30:29;;;;;;;5.07;4.55;;;;;;;;;;5034261;28;20030;-61
2023/05/05 04:32:55;;;;;;;6.00;5.30;;;;;;;;;;5033662;28;20084;-61
2023/05/05 04:35:21;;;;;;;5.22;4.75;;;;;;;;;;5015990;28;20163;-61
2023/05/05 04:37:46;;;;;;;6.50;4.90;;;;;;;;;;5016249;28;20068;-54
2023/05/05 04:40:12;;;;;;;8.02;5.00;;;;;;;;;;5016107;28;20029;-55
2023/05/05 04:42:39;;;;;;;6.50;4.80;;;;;;;;;;5016060;28;20045;-55
2023/05/05 04:45:05;;;;;;;5.13;4.63;;;;;;;;;;5015950;28;20345;-55
2023/05/05 04:47:31;;;;;;;24.98;12.90;;;;;;;;;;5015641;28;20037;-55
2023/05/05 04:49:56;;;;;;;28.10;11.45;;;;;;;;;;5016123;28;20030;-61
2023/05/05 04:52:22;;;;;;;8.43;6.78;;;;;;;;;;5014943;28;20052;-61
2023/05/05 04:54:47;;;;;;;7.70;6.15;;;;;;;;;;5015808;28;20120;-55
2023/05/05 04:57:13;;;;;;;7.70;6.63;;;;;;;;;;5015793;28;20364;-55
2023/05/05 04:59:38;;;;;;;7.45;5.50;;;;;;;;;;5014841;28;20462;-56
2023/05/05 05:02:05;;;;;;;6.38;4.88;;;;;;;;;;5033512;28;20116;-55
2023/05/05 05:04:30;;;;;;;6.38;4.97;;;;;;;;;;5016070;28;20121;-55
2023/05/05 05:06:56;;;;;;;9.85;5.35;;;;;;;;;;5014010;28;20104;-58
2023/05/05 05:09:21;;;;;;;7.47;5.20;;;;;;;;;;5003735;28;20022;-56
2023/05/05 05:11:46;;;;;;;5.65;4.85;;;;;;;;;;4977657;28;20022;-62
2023/05/05 05:14:11;;;;;;;5.57;4.82;;;;;;;;;;4993743;28;20019;-62
2023/05/05 05:16:37;;;;;;;5.55;4.97;;;;;;;;;;4976793;28;20107;-63
2023/05/05 05:19:03;;;;;;;7.15;4.45;;;;;;;;;;4979052;28;20109;-62
2023/05/05 05:21:30;;;;;;;7.65;4.25;;;;;;;;;;4996093;28;20022;-62
2023/05/05 05:23:56;;;;;;;8.35;4.80;;;;;;;;;;4979820;28;20019;-63
2023/05/05 05:26:22;;;;;;;5.15;4.57;;;;;;;;;;4980032;28;20037;-63
2023/05/05 05:28:48;;;;;;;5.78;4.28;;;;;;;;;;4980123;28;20420;-63
2023/05/05 05:31:13;;;;;;;5.47;3.95;;;;;;;;;;4997389;28;20030;-62
2023/05/05 05:33:38;;;;;;;4.68;4.28;;;;;;;;;;4979980;28;20030;-62
2023/05/05 05:36:04;;;;;;;5.93;3.92;;;;;;;;;;4995967;28;20114;-62
2023/05/05 05:38:30;;;;;;;4.90;3.63;;;;;;;;;;4995936;28;20022;-62
2023/05/05 05:40:58;;;;;;;7.28;3.90;;;;;;;;;;4995950;28;20023;-62
2023/05/05 05:43:23;;;;;;;3.97;3.45;;;;;;;;;;4997237;28;20034;-62
2023/05/05 05:45:49;;;;;;;5.07;4.05;;;;;;;;;;4996892;28;20388;-62
2023/05/05 05:48:15;;;;;;;5.20;3.78;;;;;;;;;;4995663;28;20092;-62
2023/05/05 05:50:40;;;;;;;5.35;3.80;;;;;;;;;;4979505;28;20077;-62
2023/05/05 05:53:06;;;;;;;3.67;3.33;;;;;;;;;;4979676;28;20453;-62
2023/05/05 05:55:31;;;;;;;3.75;3.35;;;;;;;;;;4996715;28;20027;-62
2023/05/05 05:57:57;;;;;;;4.82;3.22;;;;;;;;;;4979614;28;20022;-62
2023/05/05 06:00:22;;;;;;;4.30;3.80;;;;;;;;;;4979031;28;20030;-63
2023/05/05 06:02:55;;;;;;;5.40;3.22;;;;;;;;;;4978649;28;20026;-62
2023/05/05 06:05:24;;;;;;;3.85;3.30;;;;;;;;;;4978165;28;20575;-62
2023/05/05 06:07:50;;;;;;;6.90;3.25;;;;;;;;;;4978479;28;20109;-62
2023/05/05 06:10:16;;;;;;;4.03;3.25;;;;;;;;;;4978616;28;20050;-62
2023/05/05 06:12:42;;;;;;;3.58;3.28;;;;;;;;;;4978396;28;20054;-62
2023/05/05 06:15:07;;;;;;;3.70;3.40;;;;;;;;;;4979149;28;20035;-61
2023/05/05 06:17:33;;;;;;;6.05;3.13;;;;;;;;;;4978771;28;20022;-60
2023/05/05 06:19:58;;;;;;;3.78;3.00;;;;;;;;;;4979072;28;20109;-60
2023/05/05 06:22:24;;;;;;;3.53;3.20;;;;;;;;;;4996223;28;20041;-60
2023/05/05 06:24:50;;;;;;;3.47;3.15;;;;;;;;;;4978006;28;20030;-60
2023/05/05 06:27:16;;;;;;;4.80;2.85;;;;;;;;;;4978078;28;20024;-60
2023/05/05 06:29:41;;;;;;;4.25;2.90;;;;;;;;;;4995377;28;20118;-60
2023/05/05 06:32:07;;;;;;;3.40;2.90;;;;;;;;;;4995596;28;20058;-60
2023/05/05 06:34:32;;;;;;;3.88;3.03;;;;;;;;;;4995486;28;20026;-61
2023/05/05 06:36:58;;;;;;;4.88;3.00;;;;;;;;;;4994825;28;20412;-60
2023/05/05 06:39:23;;;;;;;3.55;2.80;;;;;;;;;;4994736;28;20098;-60
2023/05/05 06:41:48;;;;;;;3.50;3.03;;;;;;;;;;4994302;28;20030;-60
2023/05/05 06:44:14;;;;;;;6.00;3.08;;;;;;;;;;4977145;28;20038;-60
2023/05/05 06:46:39;;;;;;;3.55;2.90;;;;;;;;;;4976903;28;20559;-60
2023/05/05 06:49:04;;;;;;;3.85;3.20;;;;;;;;;;4993951;28;20034;-60
2023/05/05 06:51:30;;;;;;;3.88;2.58;;;;;;;;;;4994394;28;20161;-60
2023/05/05 06:53:55;;;;;;;3.05;2.80;;;;;;;;;;4994573;28;20381;-60
2023/05/05 06:56:20;;;;;;;3.22;2.53;;;;;;;;;;4994525;28;20027;-60
2023/05/05 06:58:46;;;;;;;4.97;2.72;;;;;;;;;;4995537;28;20449;-60
2023/05/05 07:01:12;;;;;;;2.50;2.30;;;;;;;;;;4995562;28;20030;-60
2023/05/05 07:03:38;;;;;;;3.42;2.55;;;;;;;;;;4995005;28;20101;-60
2023/05/05 07:06:03;;;;;;;2.70;2.45;;;;;;;;;;4995756;28;20342;-60
2023/05/05 07:08:29;;;;;;;3.38;2.30;;;;;;;;;;4995473;28;20072;-60
2023/05/05 07:10:54;;;;;;;3.80;2.85;;;;;;;;;;4995392;28;20034;-60
2023/05/05 07:13:19;;;;;;;3.55;2.30;;;;;;;;;;4995255;28;20027;-60
2023/05/05 07:15:45;;;;;;;2.38;2.00;;;;;;;;;;4995208;28;20034;-60
2023/05/05 07:18:11;;;;;;;4.50;2.53;;;;;;;;;;4994840;28;20109;-60
2023/05/05 07:20:36;;;;;;;2.72;2.53;;;;;;;;;;4995302;28;20069;-60
2023/05/05 07:23:03;;;;;;;2.80;2.60;;;;;;;;;;5009298;28;20051;-60
2023/05/05 07:25:28;;;;;;;2.92;2.50;;;;;;;;;;4997193;28;20457;-60
2023/05/05 07:27:53;;;;;;;2.20;2.00;;;;;;;;;;5014137;28;20075;-60
2023/05/05 07:30:19;;;;;;;4.18;2.30;;;;;;;;;;5014735;28;20049;-60
2023/05/05 07:32:45;;;;;;;2.45;2.25;;;;;;;;;;5014943;28;20116;-60
2023/05/05 07:35:10;;;;;;;2.63;2.13;;;;;;;;;;5014342;28;20104;-60
2023/05/05 07:37:35;;;;;;;4.43;2.10;;;;;;;;;;5014660;28;20034;-60
2023/05/05 07:40:01;;;;;;;2.22;2.08;;;;;;;;;;5014525;28;20026;-54
2023/05/05 07:42:26;;;;;;;1.92;1.80;;;;;;;;;;5014305;28;20028;-54
2023/05/05 07:44:51;;;;;;;2.17;1.90;;;;;;;;;;5014396;28;20030;-60
2023/05/05 07:47:18;;;;;;;1.83;1.70;;;;;;;;;;5014498;28;20037;-60
2023/05/05 07:49:43;;;;;;;3.95;2.38;;;;;;;;;;5014114;28;20052;-60
2023/05/05 07:52:08;;;;;;;2.22;1.70;;;;;;;;;;5013639;28;20488;-60
2023/05/05 07:54:34;;;;;;;2.22;1.60;;;;;;;;;;5014401;28;20034;-60
2023/05/05 07:56:59;;;;;;;2.25;2.05;;;;;;;;;;5014300;28;20026;-55
2023/05/05 07:59:24;;;;;;;2.97;1.80;;;;;;;;;;4996625;28;20022;-55
2023/05/05 08:01:49;;;;;;;3.45;2.10;;;;;;;;;;5014450;28;20491;-54
2023/05/05 08:04:15;;;;;;;15.00;3.05;;;;;;;;;;5014354;28;20044;-54
2023/05/05 08:06:40;;;;;;;2.50;1.63;;;;;;;;;;5014397;28;20365;-55
2023/05/05 08:09:06;;;;;;;2.75;1.75;;;;;;;;;;4997040;28;20045;-57
2023/05/05 08:11:31;;;;;;;2.67;1.80;;;;;;;;;;5013443;28;20034;-54
2023/05/05 08:13:57;;;;;;;1.70;1.60;;;;;;;;;;5014504;28;20018;-56
2023/05/05 08:16:22;;;;;;;1.45;1.35;;;;;;;;;;4996718;28;20030;-55
2023/05/05 08:18:47;;;;;;;1.95;1.80;;;;;;;;;;5014187;28;20054;-55
2023/05/05 08:21:13;;;;;;;1.60;1.50;;;;;;;;;;5014352;28;20444;-55
2023/05/05 08:23:38;;;;;;;3.72;1.90;;;;;;;;;;5014028;28;20038;-55
2023/05/05 08:26:08;;;;;;;3.35;1.90;;;;;;;;;;5014450;28;20026;-55
2023/05/05 08:28:35;;;;;;;1.90;1.80;;;;;;;;;;5013841;28;20042;-55
2023/05/05 08:31:00;;;;;;;1.70;1.60;;;;;;;;;;4996538;28;20273;-55
2023/05/05 08:33:26;;;;;;;1.73;1.60;;;;;;;;;;5014265;28;20037;-55
2023/05/05 08:35:51;;;;;;;2.20;1.73;;;;;;;;;;5014080;28;20026;-55
2023/05/05 08:38:17;;;;;;;1.40;1.30;;;;;;;;;;5014273;28;20376;-55
2023/05/05 08:40:43;;;;;;;3.05;2.20;;;;;;;;;;5014141;28;20112;-55
2023/05/05 08:43:09;;;;;;;2.90;2.25;;;;;;;;;;5014244;28;20069;-55
2023/05/05 08:45:35;;;;;;;1.90;1.80;;;;;;;;;;5014105;28;20033;-55
2023/05/05 08:48:02;;;;;;;1.95;1.85;;;;;;;;;;5013570;28;20105;-56
2023/05/05 08:50:28;;;;;;;2.10;1.80;;;;;;;;;;5013938;28;20076;-56
2023/05/05 08:53:10;;;;;;;2.95;2.03;;;;;;;;;;5014350;28;20061;-56
2023/05/05 08:55:48;;;;;;;2.33;1.83;;;;;;;;;;5017944;28;20034;-57
2023/05/05 08:58:14;;;;;;;3.92;2.50;;;;;;;;;;5000531;28;20038;-57
2023/05/05 09:00:41;;;;;;;2.30;2.20;;;;;;;;;;5017653;28;20034;-57
2023/05/05 09:03:06;;;;;;;1.77;1.67;;;;;;;;;;5000175;28;20389;-57
2023/05/05 09:05:32;;;;;;;2.00;1.80;;;;;;;;;;5017012;28;20034;-57
2023/05/05 09:07:57;;;;;;;1.88;1.77;;;;;;;;;;5017542;28;20100;-57
2023/05/05 09:10:23;;;;;;;3.35;1.90;;;;;;;;;;5000006;28;20069;-56
2023/05/05 09:12:50;;;;;;;2.13;1.92;;;;;;;;;;5017618;28;20034;-56
2023/05/05 09:15:15;;;;;;;2.30;2.15;;;;;;;;;;5017486;28;20022;-57
2023/05/05 09:17:41;;;;;;;4.32;2.88;;;;;;;;;;5017566;28;20037;-56
2023/05/05 09:20:12;;;;;;;3.65;2.10;;;;;;;;;;5017202;28;20017;-62
2023/05/05 09:22:41;;;;;;;2.50;2.30;;;;;;;;;;5017081;28;20045;-56
2023/05/05 09:25:11;;;;;;;2.45;2.10;;;;;;;;;;5017214;28;20114;-56
2023/05/05 09:27:37;;;;;;;4.55;2.30;;;;;;;;;;4999639;28;20061;-56
2023/05/05 09:30:04;;;;;;;2.22;2.03;;;;;;;;;;5016901;28;20029;-57
2023/05/05 09:32:30;;;;;;;1.80;1.70;;;;;;;;;;5016668;28;20056;-56
2023/05/05 09:34:59;;;;;;;2.40;2.20;;;;;;;;;;4982904;28;20465;-57
2023/05/05 09:37:28;;;;;;;4.50;1.83;;;;;;;;;;5016619;28;20022;-57
2023/05/05 09:39:54;;;;;;;2.15;1.58;;;;;;;;;;4982599;28;20464;-57
2023/05/05 09:42:19;;;;;;;2.33;1.88;;;;;;;;;;5017043;28;20044;-57
2023/05/05 09:44:45;;;;;;;2.60;2.40;;;;;;;;;;4999499;28;20025;-57
2023/05/05 09:47:10;;;;;;;3.47;2.05;;;;;;;;;;5016616;28;20037;-57
2023/05/05 09:49:36;;;;;;;3.30;1.50;;;;;;;;;;5016972;28;20048;-57
2023/05/05 09:52:10;;;;;;;2.50;2.22;;;;;;;;;;5016401;28;20486;-57
2023/05/05 09:54:35;;;;;;;2.22;1.90;;;;;;;;;;5016964;28;20033;-56
2023/05/05 09:57:01;;;;;;;2.65;2.30;;;;;;;;;;5016598;28;20030;-57
2023/05/05 09:59:26;;;;;;;1.92;1.70;;;;;;;;;;5016539;28;20025;-56
2023/05/05 10:01:51;;;;;;;1.75;1.65;;;;;;;;;;5015955;28;20108;-57
2023/05/05 10:04:23;;;;;;;2.35;2.15;;;;;;;;;;5015600;28;20037;-57
2023/05/05 10:06:49;;;;;;;2.40;2.30;;;;;;;;;;4998362;28;20536;-57
2023/05/05 10:09:14;;;;;;;3.30;2.30;;;;;;;;;;5016440;28;20041;-56
2023/05/05 10:11:40;;;;;;;3.05;2.78;;;;;;;;;;4998352;28;20073;-57
2023/05/05 10:14:06;;;;;;;2.35;1.92;;;;;;;;;;5015504;28;20160;-57
2023/05/05 10:16:32;;;;;;;2.20;2.03;;;;;;;;;;5015755;28;20421;-57
2023/05/05 10:19:00;;;;;;;2.50;2.22;;;;;;;;;;5015715;28;20456;-57
2023/05/05 10:21:26;;;;;;;2.33;2.22;;;;;;;;;;5016071;28;20037;-57
2023/05/05 10:23:56;;;;;;;2.17;2.08;;;;;;;;;;5016033;28;20026;-57
2023/05/05 10:26:23;;;;;;;2.60;2.40;;;;;;;;;;5015874;28;20034;-57
2023/05/05 10:28:55;;;;;;;2.58;2.33;;;;;;;;;;5016158;28;20084;-57
2023/05/05 10:31:26;;;;;;;2.08;1.85;;;;;;;;;;5015488;28;20092;-57
2023/05/05 10:33:54;;;;;;;2.80;2.03;;;;;;;;;;5015754;28;20487;-57
2023/05/05 10:36:19;;;;;;;3.05;2.85;;;;;;;;;;5015523;28;20038;-57
2023/05/05 10:38:45;;;;;;;2.60;2.50;;;;;;;;;;5015706;28;20037;-57
2023/05/05 10:41:12;;;;;;;3.08;2.60;;;;;;;;;;5015500;28;20081;-57
2023/05/05 10:43:38;;;;;;;2.22;2.03;;;;;;;;;;5015896;28;20030;-57
2023/05/05 10:46:04;;;;;;;2.35;2.13;;;;;;;;;;4997882;28;20042;-56
2023/05/05 10:48:41;;;;;;;2.42;2.22;;;;;;;;;;5015558;28;20042;-57
2023/05/05 10:51:18;;;;;;;2.17;2.05;;;;;;;;;;4997485;28;20100;-57
2023/05/05 10:53:53;;;;;;;3.90;2.00;;;;;;;;;;4997299;28;20543;-57
2023/05/05 10:56:24;;;;;;;2.28;2.15;;;;;;;;;;5015326;28;20037;-57
2023/05/05 10:58:49;;;;;;;4.40;1.95;;;;;;;;;;5014979;28;20065;-57
2023/05/05 11:01:26;;;;;;;2.20;2.10;;;;;;;;;;5015272;28;20116;-57
2023/05/05 11:04:12;;;;;;;2.53;1.58;;;;;;;;;;5015320;28;20037;-57
2023/05/05 11:06:37;;;;;;;2.60;1.83;;;;;;;;;;5015317;28;20030;-57
2023/05/05 11:09:22;;;;;;;1.75;1.65;;;;;;;;;;5014941;28;20045;-57
2023/05/05 11:12:01;;;;;;;2.67;1.70;;;;;;;;;;5014645;28;20116;-57
2023/05/05 11:14:26;;;;;;;2.00;1.90;;;;;;;;;;5015396;28;20030;-57
2023/05/05 11:16:53;;;;;;;1.75;1.65;;;;;;;;;;5014965;28;20029;-57
2023/05/05 11:19:37;;;;;;;2.35;2.13;;;;;;;;;;5014577;28;20026;-57
2023/05/05 11:22:03;;;;;;;2.80;2.60;;;;;;;;;;5013532;28;20034;-63
2023/05/05 11:24:32;;;;;;;3.13;2.83;;;;;;;;;;5014646;28;20495;-64
2023/05/05 11:26:57;;;;;;;2.72;2.53;;;;;;;;;;5014669;28;20349;-64
2023/05/05 11:29:22;;;;;;;2.95;2.60;;;;;;;;;;5014468;28;20034;-64
2023/05/05 11:32:06;;;;;;;2.40;2.22;;;;;;;;;;5012896;28;20038;-64
2023/05/05 11:34:32;;;;;;;2.55;2.17;;;;;;;;;;5014503;28;20049;-64
2023/05/05 11:37:03;;;;;;;2.75;2.03;;;;;;;;;;5014450;28;20111;-64
2023/05/05 11:39:40;;;;;;;3.55;1.90;;;;;;;;;;5014044;28;20030;-64
2023/05/05 11:42:11;;;;;;;3.40;2.03;;;;;;;;;;5013933;28;20065;-64
2023/05/05 11:44:37;;;;;;;1.92;1.83;;;;;;;;;;5014076;28;20104;-64
2023/05/05 11:47:05;;;;;;;2.25;1.85;;;;;;;;;;5014033;28;20038;-64
2023/05/05 11:49:34;;;;;;;2.47;2.22;;;;;;;;;;5014100;28;20032;-64
2023/05/05 11:52:07;;;;;;;2.25;1.83;;;;;;;;;;5012327;28;20046;-64
2023/05/05 11:54:36;;;;;;;2.22;2.00;;;;;;;;;;5012742;28;20034;-63
2023/05/05 11:57:04;;;;;;;3.03;2.40;;;;;;;;;;5013673;28;20072;-62
2023/05/05 11:59:33;;;;;;;2.25;2.05;;;;;;;;;;5013902;28;20162;-62
2023/05/05 12:01:59;;;;;;;2.30;1.92;;;;;;;;;;5013227;28;20109;-62
2023/05/05 12:04:24;;;;;;;4.82;2.28;;;;;;;;;;5013570;28;20145;-62
2023/05/05 12:06:50;;;;;;;1.80;1.70;;;;;;;;;;5011057;28;20077;-62
2023/05/05 12:09:16;;;;;;;2.40;1.60;;;;;;;;;;5013188;28;20017;-62
2023/05/05 12:11:51;;;;;;;1.63;1.52;;;;;;;;;;5014451;28;20100;-62
2023/05/05 12:14:16;;;;;;;1.20;1.00;;;;;;;;;;5014059;28;20034;-62
2023/05/05 12:17:02;;;;;;;2.30;2.10;;;;;;;;;;5013455;28;20076;-62
2023/05/05 12:19:31;;;;;;;3.08;2.28;;;;;;;;;;4998657;28;20648;-62
2023/05/05 12:21:57;;;;;;;2.28;1.88;;;;;;;;;;5013905;28;20034;-62
2023/05/05 12:24:22;;;;;;;3.20;2.00;;;;;;;;;;5013619;28;20121;-62
2023/05/05 12:26:48;;;;;;;1.65;1.50;;;;;;;;;;5013301;28;20030;-62
2023/05/05 12:29:22;;;;;;;2.25;2.10;;;;;;;;;;5016102;28;20481;-62
2023/05/05 12:31:47;;;;;;;1.98;1.88;;;;;;;;;;5000636;28;20034;-62
2023/05/05 12:34:13;;;;;;;2.42;2.10;;;;;;;;;;5017960;28;20022;-62
2023/05/05 12:36:38;;;;;;;4.47;2.55;;;;;;;;;;5017950;28;20030;-62
2023/05/05 12:39:04;;;;;;;2.25;2.15;;;;;;;;;;4999370;28;20148;-62
2023/05/05 12:41:30;;;;;;;2.67;1.80;;;;;;;;;;5017900;28;20525;-62
2023/05/05 12:43:56;;;;;;;1.80;1.70;;;;;;;;;;5017516;28;20439;-62
2023/05/05 12:46:21;;;;;;;1.30;1.20;;;;;;;;;;5017497;28;20042;-62
2023/05/05 12:48:58;;;;;;;1.45;1.35;;;;;;;;;;5000028;28;20025;-63
2023/05/05 12:51:23;;;;;;;2.70;1.83;;;;;;;;;;5016991;28;20045;-63
2023/05/05 12:54:00;;;;;;;1.80;1.70;;;;;;;;;;5016904;28;20479;-62
2023/05/05 12:56:28;;;;;;;2.25;1.63;;;;;;;;;;5017262;28;20182;-62
2023/05/05 12:58:54;;;;;;;1.75;1.50;;;;;;;;;;5017310;28;20496;-62
2023/05/05 13:01:19;;;;;;;1.38;1.20;;;;;;;;;;5017633;28;20065;-62
2023/05/05 13:03:45;;;;;;;2.15;1.95;;;;;;;;;;5016767;28;20033;-62
2023/05/05 13:06:20;;;;;;;1.85;1.58;;;;;;;;;;5017243;28;20026;-63
2023/05/05 13:08:47;;;;;;;1.67;1.58;;;;;;;;;;5016951;28;20388;-61
2023/05/05 13:11:12;;;;;;;2.22;2.03;;;;;;;;;;4980140;28;20018;-55
2023/05/05 13:13:38;;;;;;;6.28;1.80;;;;;;;;;;4997691;28;20472;-55
2023/05/05 13:16:03;;;;;;;3.15;1.83;;;;;;;;;;4997506;28;20022;-55
2023/05/05 13:18:29;;;;;;;2.78;1.80;;;;;;;;;;4997633;28;20183;-55
2023/05/05 13:20:54;;;;;;;2.08;1.83;;;;;;;;;;4979787;28;20481;-55
2023/05/05 13:23:19;;;;;;;2.95;1.75;;;;;;;;;;4997681;28;20022;-55
2023/05/05 13:25:45;;;;;;;2.60;1.90;;;;;;;;;;4997752;28;20392;-55
2023/05/05 13:28:10;;;;;;;2.58;1.42;;;;;;;;;;4997179;28;20034;-55
2023/05/05 13:30:36;;;;;;;1.50;1.40;;;;;;;;;;4997018;28;20034;-54
2023/05/05 13:33:02;;;;;;;3.67;1.60;;;;;;;;;;4996940;28;20037;-54
2023/05/05 13:35:28;;;;;;;4.10;2.13;;;;;;;;;;4996948;28;20428;-55
2023/05/05 13:37:53;;;;;;;3.40;1.50;;;;;;;;;;4996948;28;20030;-55
2023/05/05 13:40:18;;;;;;;3.33;1.88;;;;;;;;;;4997182;28;20018;-55
2023/05/05 13:42:44;;;;;;;2.75;2.00;;;;;;;;;;4997184;28;20101;-55
2023/05/05 13:45:11;;;;;;;1.70;1.60;;;;;;;;;;4997077;28;20038;-55
2023/05/05 13:47:36;;;;;;;2.28;1.70;;;;;;;;;;4996783;28;20041;-55
2023/05/05 13:50:01;;;;;;;1.70;1.60;;;;;;;;;;4996875;28;20109;-55
2023/05/05 13:52:27;;;;;;;1.67;1.58;;;;;;;;;;4996319;28;20077;-55
2023/05/05 13:54:52;;;;;;;6.00;1.80;;;;;;;;;;5014770;28;20053;-55
2023/05/05 13:57:17;;;;;;;2.05;1.80;;;;;;;;;;5016523;28;20030;-55
2023/05/05 13:59:43;;;;;;;2.03;1.35;;;;;;;;;;5015358;28;20033;-55
2023/05/05 14:02:08;;;;;;;2.50;1.42;;;;;;;;;;5016181;28;20108;-55
2023/05/05 14:04:33;;;;;;;1.58;1.48;;;;;;;;;;5015146;28;20053;-55
2023/05/05 14:06:59;;;;;;;1.92;1.83;;;;;;;;;;5016167;28;20092;-55
2023/05/05 14:09:25;;;;;;;1.70;1.60;;;;;;;;;;5016338;28;20034;-55
2023/05/05 14:11:50;;;;;;;1.27;1.25;;;;;;;;;;5015620;28;20381;-54
2023/05/05 14:14:16;;;;;;;1.83;1.40;;;;;;;;;;5015616;28;20026;-54
2023/05/05 14:16:42;;;;;;;1.63;1.52;;;;;;;;;;4998307;28;20017;-54
2023/05/05 14:19:07;;;;;;;3.10;1.65;;;;;;;;;;5015941;28;20022;-54
2023/05/05 14:21:32;;;;;;;5.47;1.58;;;;;;;;;;4998506;28;20084;-54
2023/05/05 14:23:58;;;;;;;3.08;1.65;;;;;;;;;;5016297;28;20076;-54
2023/05/05 14:26:24;;;;;;;2.60;1.70;;;;;;;;;;5015885;28;20030;-54
2023/05/05 14:28:49;;;;;;;1.70;1.60;;;;;;;;;;5015814;28;20026;-54
2023/05/05 14:31:16;;;;;;;1.65;1.55;;;;;;;;;;5015843;28;20107;-54
2023/05/05 14:33:41;;;;;;;1.70;1.60;;;;;;;;;;5015400;28;20033;-54
2023/05/05 14:36:07;;;;;;;5.25;1.60;;;;;;;;;;5015769;28;20029;-54
2023/05/05 14:38:32;;;;;;;3.42;1.80;;;;;;;;;;5015396;28;20072;-54
2023/05/05 14:40:57;;;;;;;2.53;1.60;;;;;;;;;;5015781;28;20068;-54
2023/05/05 14:43:23;;;;;;;1.75;1.65;;;;;;;;;;5015142;28;20029;-54